createdAt,value
2022-10-16T00:01:22.726Z,19.01
2022-10-16T00:03:51.745Z,19.05
2022-10-16T00:06:22.293Z,19.02
2022-10-16T00:08:52.148Z,19.07
2022-10-16T00:11:22.279Z,19.11
2022-10-16T00:13:52.974Z,19.15
2022-10-16T00:16:22.324Z,19.14
2022-10-16T00:18:50.291Z,19.07
2022-10-16T00:21:21.838Z,19.11
2022-10-16T00:23:53.977Z,19.06
2022-10-16T00:26:22.507Z,19.04
2022-10-16T00:28:51.347Z,18.99
2022-10-16T00:31:21.003Z,19.06
2022-10-16T00:33:49.253Z,18.79
2022-10-16T00:36:19.625Z,18.78
2022-10-16T00:38:48.238Z,18.88
2022-10-16T00:41:19.208Z,18.91
2022-10-16T00:43:48.716Z,18.86
2022-10-16T00:46:21.125Z,18.87
2022-10-16T00:48:54.769Z,18.84
2022-10-16T00:51:27.680Z,18.84
2022-10-16T00:53:57.218Z,18.83
2022-10-16T00:56:26.624Z,18.84
2022-10-16T00:58:54.695Z,18.84
2022-10-16T01:01:23.088Z,18.86
2022-10-16T01:03:51.099Z,18.86
2022-10-16T01:09:16.136Z,18.80
2022-10-16T01:11:56.392Z,18.79
2022-10-16T01:14:34.223Z,18.75
2022-10-16T01:17:07.512Z,18.67
2022-10-16T01:19:50.774Z,18.69
2022-10-16T01:22:22.104Z,18.62
2022-10-16T01:24:51.930Z,18.69
2022-10-16T01:27:26.184Z,18.69
2022-10-16T01:29:58.628Z,18.76
2022-10-16T01:32:34.791Z,18.75
2022-10-16T01:35:08.043Z,18.76
2022-10-16T01:37:40.704Z,18.84
2022-10-16T01:40:14.075Z,18.83
2022-10-16T01:42:46.622Z,18.85
2022-10-16T01:45:19.513Z,18.88
2022-10-16T01:47:48.980Z,18.85
2022-10-16T01:50:20.165Z,18.82
2022-10-16T01:52:51.843Z,18.86
2022-10-16T01:55:24.923Z,18.82
2022-10-16T01:57:55.904Z,18.82
2022-10-16T02:00:25.805Z,18.74
2022-10-16T02:02:56.263Z,18.71
2022-10-16T02:05:28.473Z,18.69
2022-10-16T02:07:58.480Z,18.73
2022-10-16T02:10:32.323Z,18.73
2022-10-16T02:13:07.577Z,18.66
2022-10-16T02:15:35.667Z,18.49
2022-10-16T02:18:04.512Z,18.34
2022-10-16T02:20:36.768Z,18.41
2022-10-16T02:23:05.729Z,18.30
2022-10-16T02:25:37.096Z,18.31
2022-10-16T02:28:13.641Z,18.30
2022-10-16T02:30:45.883Z,18.24
2022-10-16T02:33:16.463Z,18.24
2022-10-16T02:35:47.054Z,18.24
2022-10-16T02:38:16.565Z,18.22
2022-10-16T02:40:45.104Z,18.24
2022-10-16T02:43:15.186Z,18.22
2022-10-16T02:45:43.141Z,18.21
2022-10-16T02:48:11.500Z,18.19
2022-10-16T02:50:39.507Z,18.18
2022-10-16T02:53:07.461Z,18.14
2022-10-16T02:55:35.477Z,18.14
2022-10-16T02:58:03.510Z,18.11
2022-10-16T03:00:32.934Z,18.03
2022-10-16T03:03:01.016Z,18.07
2022-10-16T03:05:29.079Z,17.95
2022-10-16T03:07:57.073Z,17.97
2022-10-16T03:10:25.133Z,17.91
2022-10-16T03:12:53.104Z,17.87
2022-10-16T03:15:21.331Z,17.96
2022-10-16T03:17:50.677Z,17.82
2022-10-16T03:20:18.601Z,17.89
2022-10-16T03:22:46.605Z,17.94
2022-10-16T03:25:14.827Z,17.72
2022-10-16T03:27:42.787Z,17.86
2022-10-16T03:30:12.065Z,17.76
2022-10-16T03:32:40.074Z,17.77
2022-10-16T03:35:10.242Z,17.46
2022-10-16T03:37:38.365Z,17.68
2022-10-16T03:40:07.044Z,17.80
2022-10-16T03:42:34.997Z,17.90
2022-10-16T03:45:03.084Z,17.95
2022-10-16T03:47:31.064Z,17.97
2022-10-16T03:49:59.122Z,17.97
2022-10-16T03:52:28.546Z,17.77
2022-10-16T03:54:56.786Z,17.77
2022-10-16T03:57:25.048Z,17.88
2022-10-16T03:59:53.349Z,17.99
2022-10-16T04:02:21.319Z,17.96
2022-10-16T04:04:49.335Z,17.99
2022-10-16T04:07:17.335Z,18.04
2022-10-16T04:09:46.774Z,18.13
2022-10-16T04:12:14.756Z,18.09
2022-10-16T04:14:42.805Z,18.05
2022-10-16T04:17:10.787Z,18.13
2022-10-16T04:19:38.801Z,18.22
2022-10-16T04:22:06.850Z,18.12
2022-10-16T04:24:34.790Z,18.16
2022-10-16T04:27:04.226Z,18.24
2022-10-16T04:29:32.286Z,18.26
2022-10-16T04:32:00.268Z,18.22
2022-10-16T04:34:28.211Z,18.23
2022-10-16T04:36:56.423Z,18.31
2022-10-16T04:39:24.450Z,18.21
2022-10-16T04:41:52.474Z,18.25
2022-10-16T04:44:21.867Z,18.31
2022-10-16T04:46:49.934Z,18.34
2022-10-16T04:49:17.904Z,18.33
2022-10-16T04:51:45.878Z,18.20
2022-10-16T04:54:13.928Z,18.23
2022-10-16T04:56:47.661Z,18.16
2022-10-16T04:59:16.210Z,18.10
2022-10-16T05:01:45.741Z,18.11
2022-10-16T05:04:16.006Z,18.07
2022-10-16T05:06:44.577Z,18.03
2022-10-16T05:09:12.546Z,17.99
2022-10-16T05:11:40.504Z,17.87
2022-10-16T05:14:08.530Z,17.77
2022-10-16T05:16:36.515Z,17.81
2022-10-16T05:21:53.890Z,17.84
2022-10-16T05:24:21.882Z,17.82
2022-10-16T05:26:50.068Z,17.78
2022-10-16T05:29:17.992Z,17.68
2022-10-16T05:31:45.963Z,17.76
2022-10-16T05:34:15.356Z,17.75
2022-10-16T05:36:43.392Z,17.76
2022-10-16T05:39:11.334Z,17.76
2022-10-16T05:41:39.358Z,17.63
2022-10-16T05:44:07.687Z,17.71
2022-10-16T05:46:35.859Z,17.77
2022-10-16T05:49:04.091Z,17.81
2022-10-16T05:51:33.496Z,17.83
2022-10-16T05:54:01.444Z,17.78
2022-10-16T05:56:29.656Z,17.61
2022-10-16T05:58:57.781Z,17.78
2022-10-16T06:01:26.092Z,17.79
2022-10-16T06:03:55.016Z,17.80
2022-10-16T06:06:27.554Z,17.96
2022-10-16T06:08:58.335Z,17.94
2022-10-16T06:11:28.036Z,18.03
2022-10-16T06:13:57.630Z,18.04
2022-10-16T06:16:26.659Z,17.98
2022-10-16T06:18:56.833Z,18.04
2022-10-16T06:21:26.810Z,17.95
2022-10-16T06:23:56.846Z,17.98
2022-10-16T06:26:26.404Z,18.01
2022-10-16T06:28:56.072Z,18.07
2022-10-16T06:31:28.317Z,18.17
2022-10-16T06:33:57.235Z,18.19
2022-10-16T06:36:26.441Z,18.29
2022-10-16T06:38:54.510Z,18.30
2022-10-16T06:41:25.036Z,18.38
2022-10-16T06:43:53.291Z,18.34
2022-10-16T06:46:23.725Z,18.49
2022-10-16T06:48:51.965Z,18.54
2022-10-16T06:51:21.667Z,18.68
2022-10-16T06:54:06.389Z,18.81
2022-10-16T06:56:36.325Z,18.77
2022-10-16T06:59:05.107Z,18.87
2022-10-16T07:01:33.635Z,19.01
2022-10-16T07:04:03.016Z,18.88
2022-10-16T07:06:34.043Z,19.12
2022-10-16T07:09:04.382Z,19.27
2022-10-16T07:11:32.452Z,19.37
2022-10-16T07:14:01.749Z,19.51
2022-10-16T07:16:31.415Z,19.62
2022-10-16T07:19:01.080Z,19.48
2022-10-16T07:21:31.071Z,19.67
2022-10-16T07:24:02.256Z,19.81
2022-10-16T07:26:32.925Z,19.81
2022-10-16T07:29:02.847Z,19.95
2022-10-16T07:31:31.189Z,20.02
2022-10-16T07:34:00.790Z,20.05
2022-10-16T07:36:28.973Z,20.06
2022-10-16T07:38:59.788Z,20.19
2022-10-16T07:41:28.635Z,20.32
2022-10-16T07:43:57.520Z,20.56
2022-10-16T07:46:26.892Z,20.67
2022-10-16T07:48:55.034Z,20.59
2022-10-16T07:51:24.581Z,20.84
2022-10-16T07:53:53.202Z,20.95
2022-10-16T07:56:22.229Z,20.85
2022-10-16T07:58:51.434Z,21.11
2022-10-16T08:01:20.369Z,20.99
2022-10-16T08:03:51.665Z,20.88
2022-10-16T08:06:23.474Z,21.01
2022-10-16T08:08:55.027Z,20.94
2022-10-16T08:11:23.025Z,20.91
2022-10-16T08:13:51.064Z,20.95
2022-10-16T08:16:19.120Z,20.95
2022-10-16T08:18:47.140Z,20.92
2022-10-16T08:21:20.491Z,21.14
2022-10-16T08:23:54.516Z,21.11
2022-10-16T08:26:26.636Z,21.24
2022-10-16T08:28:54.683Z,21.45
2022-10-16T08:31:23.669Z,21.61
2022-10-16T08:33:52.405Z,21.63
2022-10-16T08:36:21.871Z,21.64
2022-10-16T08:38:51.682Z,21.76
2022-10-16T08:41:49.315Z,21.87
2022-10-16T08:44:38.247Z,22.01
2022-10-16T08:47:19.503Z,21.85
2022-10-16T08:49:57.562Z,22.02
2022-10-16T08:52:31.065Z,22.15
2022-10-16T08:54:59.438Z,22.38
2022-10-16T08:57:28.592Z,22.56
2022-10-16T09:00:01.340Z,22.65
2022-10-16T09:02:34.660Z,22.97
2022-10-16T09:05:23.863Z,22.83
2022-10-16T09:08:04.616Z,22.92
2022-10-16T09:10:46.686Z,22.76
2022-10-16T09:13:21.963Z,23.08
2022-10-16T09:15:55.653Z,23.23
2022-10-16T09:18:32.793Z,23.12
2022-10-16T09:21:09.461Z,22.82
2022-10-16T09:23:40.111Z,22.98
2022-10-16T09:26:14.003Z,23.07
2022-10-16T09:28:42.395Z,23.47
2022-10-16T09:31:17.540Z,23.47
2022-10-16T09:33:47.779Z,23.26
2022-10-16T09:36:16.286Z,23.75
2022-10-16T09:38:45.797Z,23.71
2022-10-16T09:41:20.111Z,23.63
2022-10-16T09:43:55.810Z,23.82
2022-10-16T09:46:28.349Z,24.13
2022-10-16T09:48:58.352Z,24.17
2022-10-16T09:51:28.562Z,24.04
2022-10-16T09:54:00.212Z,24.18
2022-10-16T09:56:30.912Z,24.26
2022-10-16T09:59:00.881Z,24.32
2022-10-16T10:01:33.686Z,24.13
2022-10-16T10:04:04.605Z,24.31
2022-10-16T10:06:35.258Z,24.43
2022-10-16T10:09:18.234Z,24.53
2022-10-16T10:11:50.117Z,24.24
2022-10-16T10:14:26.977Z,24.21
2022-10-16T10:17:10.575Z,24.41
2022-10-16T10:19:43.278Z,24.61
2022-10-16T10:22:25.497Z,24.74
2022-10-16T10:25:15.169Z,24.81
2022-10-16T10:27:54.131Z,25.05
2022-10-16T10:30:26.623Z,25.16
2022-10-16T10:33:12.226Z,25.13
2022-10-16T10:35:47.330Z,25.22
2022-10-16T10:38:29.348Z,25.44
2022-10-16T10:41:15.900Z,25.18
2022-10-16T10:43:57.232Z,25.30
2022-10-16T10:46:34.128Z,25.59
2022-10-16T10:49:38.538Z,25.57
2022-10-16T10:52:25.931Z,25.88
2022-10-16T10:55:02.603Z,26.00
2022-10-16T10:57:39.539Z,25.79
2022-10-16T11:00:22.541Z,26.14
2022-10-16T11:03:01.685Z,26.27
2022-10-16T11:05:44.550Z,26.13
2022-10-16T11:08:19.512Z,25.80
2022-10-16T11:10:55.428Z,26.25
2022-10-16T11:13:32.911Z,26.45
2022-10-16T11:16:04.971Z,26.23
2022-10-16T11:18:42.477Z,26.31
2022-10-16T11:21:15.065Z,26.03
2022-10-16T11:23:47.348Z,26.34
2022-10-16T11:26:20.937Z,26.34
2022-10-16T11:28:52.878Z,26.24
2022-10-16T11:31:31.062Z,26.29
2022-10-16T11:34:05.138Z,26.14
2022-10-16T11:36:38.690Z,26.26
2022-10-16T11:39:20.573Z,26.21
2022-10-16T11:41:52.596Z,26.11
2022-10-16T11:44:50.417Z,26.26
2022-10-16T11:47:53.762Z,26.19
2022-10-16T11:50:24.922Z,26.32
2022-10-16T11:52:59.277Z,26.31
2022-10-16T11:55:33.239Z,26.36
2022-10-16T11:58:06.026Z,26.24
2022-10-16T12:00:42.259Z,26.45
2022-10-16T12:03:19.743Z,26.51
2022-10-16T12:06:00.664Z,26.53
2022-10-16T12:08:29.630Z,26.44
2022-10-16T12:11:09.275Z,26.02
2022-10-16T12:13:39.262Z,26.33
2022-10-16T12:16:23.742Z,26.35
2022-10-16T12:18:52.288Z,26.36
2022-10-16T12:21:21.061Z,26.15
2022-10-16T12:23:51.428Z,26.17
2022-10-16T12:26:27.210Z,26.41
2022-10-16T12:28:56.128Z,26.04
2022-10-16T12:31:25.750Z,26.07
2022-10-16T12:34:01.779Z,26.26
2022-10-16T12:36:32.273Z,26.36
2022-10-16T12:39:01.456Z,25.66
2022-10-16T12:41:31.316Z,25.61
2022-10-16T12:44:02.267Z,25.53
2022-10-16T12:46:41.304Z,25.10
2022-10-16T12:49:25.491Z,25.52
2022-10-16T12:51:53.909Z,25.30
2022-10-16T12:54:31.242Z,24.88
2022-10-16T12:57:29.271Z,25.38
2022-10-16T13:00:05.333Z,25.07
2022-10-16T13:03:13.699Z,24.90
2022-10-16T13:05:54.105Z,24.85
2022-10-16T13:08:40.432Z,24.40
2022-10-16T13:11:19.788Z,25.23
2022-10-16T13:14:03.543Z,25.04
2022-10-16T13:16:45.021Z,25.42
2022-10-16T13:19:23.721Z,25.21
2022-10-16T13:22:04.727Z,25.35
2022-10-16T13:24:48.420Z,24.39
2022-10-16T13:27:27.772Z,24.47
2022-10-16T13:30:03.797Z,23.93
2022-10-16T13:32:33.119Z,24.08
2022-10-16T13:35:03.153Z,24.09
2022-10-16T13:37:31.248Z,23.98
2022-10-16T13:40:19.914Z,24.26
2022-10-16T13:42:48.133Z,24.31
2022-10-16T13:45:24.140Z,24.52
2022-10-16T13:47:52.296Z,24.32
2022-10-16T13:50:21.620Z,24.17
2022-10-16T13:52:50.588Z,23.96
2022-10-16T13:55:20.469Z,24.05
2022-10-16T13:57:48.489Z,24.33
2022-10-16T14:00:22.183Z,24.51
2022-10-16T14:02:57.678Z,24.71
2022-10-16T14:05:27.279Z,23.94
2022-10-16T14:07:56.858Z,24.36
2022-10-16T14:10:27.986Z,24.23
2022-10-16T14:13:01.720Z,24.30
2022-10-16T14:15:31.294Z,24.24
2022-10-16T14:18:00.718Z,23.98
2022-10-16T14:20:32.558Z,23.96
2022-10-16T14:23:02.421Z,23.76
2022-10-16T14:25:32.730Z,23.67
2022-10-16T14:28:06.671Z,23.91
2022-10-16T14:30:36.980Z,23.16
2022-10-16T14:33:07.543Z,23.53
2022-10-16T14:35:39.574Z,23.63
2022-10-16T14:38:18.268Z,23.80
2022-10-16T14:40:50.635Z,24.20
2022-10-16T14:43:23.754Z,24.63
2022-10-16T14:45:55.538Z,25.01
2022-10-16T14:48:23.972Z,25.45
2022-10-16T14:50:53.658Z,25.67
2022-10-16T14:53:21.739Z,25.84
2022-10-16T14:55:50.473Z,26.04
2022-10-16T14:58:21.128Z,26.19
2022-10-16T15:00:49.504Z,26.05
2022-10-16T15:03:17.940Z,26.13
2022-10-16T15:05:46.042Z,26.06
2022-10-16T15:08:15.778Z,26.08
2022-10-16T15:10:46.200Z,25.94
2022-10-16T15:13:14.926Z,25.46
2022-10-16T15:15:45.741Z,25.52
2022-10-16T15:18:15.792Z,25.51
2022-10-16T15:20:44.291Z,25.49
2022-10-16T15:23:18.335Z,24.87
2022-10-16T15:25:47.994Z,24.71
2022-10-16T15:28:17.199Z,24.72
2022-10-16T15:30:46.337Z,24.98
2022-10-16T15:33:16.950Z,24.93
2022-10-16T15:35:48.031Z,24.71
2022-10-16T15:38:18.583Z,24.77
2022-10-16T15:40:47.652Z,24.42
2022-10-16T15:43:15.785Z,24.20
2022-10-16T15:45:43.782Z,23.46
2022-10-16T15:48:13.923Z,23.69
2022-10-16T15:53:12.330Z,23.77
2022-10-16T15:55:41.787Z,23.90
2022-10-16T15:58:10.365Z,23.86
2022-10-16T16:00:38.711Z,23.71
2022-10-16T16:03:06.683Z,23.75
2022-10-16T16:05:36.356Z,23.85
2022-10-16T16:08:04.344Z,23.77
2022-10-16T16:10:32.377Z,23.66
2022-10-16T16:13:01.828Z,23.58
2022-10-16T16:15:29.775Z,23.56
2022-10-16T16:17:58.016Z,23.44
2022-10-16T16:20:26.011Z,23.40
2022-10-16T16:22:54.007Z,23.24
2022-10-16T16:25:22.488Z,23.33
2022-10-16T16:27:50.460Z,23.11
2022-10-16T16:30:24.777Z,23.03
2022-10-16T16:32:55.352Z,22.99
2022-10-16T16:35:23.601Z,22.90
2022-10-16T16:37:51.633Z,22.78
2022-10-16T16:40:19.717Z,22.71
2022-10-16T16:42:49.843Z,22.64
2022-10-16T16:45:19.381Z,22.64
2022-10-16T16:47:47.538Z,22.53
2022-10-16T16:50:15.755Z,22.58
2022-10-16T16:52:43.809Z,22.52
2022-10-16T16:55:11.716Z,22.45
2022-10-16T16:57:39.685Z,22.23
2022-10-16T17:00:08.779Z,22.37
2022-10-16T17:02:38.226Z,22.32
2022-10-16T17:05:06.822Z,22.27
2022-10-16T17:07:35.602Z,21.97
2022-10-16T17:10:03.887Z,21.94
2022-10-16T17:12:31.989Z,21.91
2022-10-16T17:14:59.989Z,21.97
2022-10-16T17:17:28.329Z,21.94
2022-10-16T17:19:57.803Z,22.00
2022-10-16T17:22:26.039Z,21.85
2022-10-16T17:24:54.876Z,21.76
2022-10-16T17:27:23.714Z,21.80
2022-10-16T17:29:53.253Z,21.52
2022-10-16T17:32:21.966Z,21.39
2022-10-16T17:34:49.910Z,21.21
2022-10-16T17:37:19.331Z,21.25
2022-10-16T17:39:47.398Z,21.13
2022-10-16T17:42:15.435Z,21.09
2022-10-16T17:44:43.510Z,21.19
2022-10-16T17:47:11.612Z,21.22
2022-10-16T17:49:39.975Z,21.23
2022-10-16T17:52:08.061Z,21.18
2022-10-16T17:54:37.477Z,21.19
2022-10-16T17:57:05.631Z,20.96
2022-10-16T17:59:33.812Z,21.02
2022-10-16T18:02:01.837Z,20.88
2022-10-16T18:04:30.085Z,20.94
2022-10-16T18:07:00.218Z,20.91
2022-10-16T18:09:28.967Z,20.61
2022-10-16T18:12:00.798Z,20.57
2022-10-16T18:14:30.746Z,20.65
2022-10-16T18:17:00.048Z,20.51
2022-10-16T18:19:28.855Z,20.66
2022-10-16T18:21:56.998Z,20.77
2022-10-16T18:24:25.881Z,20.67
2022-10-16T18:26:56.905Z,20.73
2022-10-16T18:29:27.739Z,20.74
2022-10-16T18:31:56.397Z,20.78
2022-10-16T18:34:26.881Z,20.79
2022-10-16T18:36:55.221Z,20.66
2022-10-16T18:39:24.818Z,20.48
2022-10-16T18:41:55.224Z,20.42
2022-10-16T18:44:23.267Z,20.26
2022-10-16T18:46:57.042Z,20.26
2022-10-16T18:49:26.367Z,20.38
2022-10-16T18:51:56.809Z,20.45
2022-10-16T18:54:25.841Z,20.55
2022-10-16T18:56:54.197Z,20.35
2022-10-16T18:59:22.535Z,20.43
2022-10-16T19:01:52.637Z,20.63
2022-10-16T19:04:22.459Z,20.46
2022-10-16T19:06:52.882Z,20.33
2022-10-16T19:09:23.334Z,20.50
2022-10-16T19:14:25.249Z,20.52
2022-10-16T19:16:54.682Z,20.41
2022-10-16T19:19:23.851Z,20.43
2022-10-16T19:21:56.540Z,20.45
2022-10-16T19:24:24.739Z,20.45
2022-10-16T19:26:52.774Z,20.36
2022-10-16T19:29:20.866Z,20.48
2022-10-16T19:31:48.827Z,20.32
2022-10-16T19:34:18.135Z,20.03
2022-10-16T19:36:46.287Z,20.02
2022-10-16T19:39:16.786Z,20.20
2022-10-16T19:41:45.086Z,19.93
2022-10-16T19:44:15.455Z,19.86
2022-10-16T19:46:44.570Z,19.94
2022-10-16T19:49:15.043Z,19.98
2022-10-16T19:51:47.190Z,20.08
2022-10-16T19:54:15.485Z,19.77
2022-10-16T19:56:45.273Z,19.85
2022-10-16T19:59:16.396Z,19.72
2022-10-16T20:01:44.718Z,19.96
2022-10-16T20:04:13.014Z,20.04
2022-10-16T20:06:41.505Z,19.91
2022-10-16T20:09:11.252Z,19.71
2022-10-16T20:11:39.484Z,19.67
2022-10-16T20:14:08.273Z,19.71
2022-10-16T20:16:36.545Z,19.54
2022-10-16T20:19:05.523Z,19.52
2022-10-16T20:21:36.884Z,19.60
2022-10-16T20:24:06.614Z,19.27
2022-10-16T20:26:36.882Z,19.37
2022-10-16T20:29:05.707Z,19.21
2022-10-16T20:31:35.261Z,19.22
2022-10-16T20:34:05.577Z,19.23
2022-10-16T20:36:34.382Z,19.47
2022-10-16T20:39:02.940Z,19.35
2022-10-16T20:41:31.035Z,19.21
2022-10-16T20:44:00.530Z,19.22
2022-10-16T20:46:29.771Z,19.24
2022-10-16T20:49:06.170Z,18.96
2022-10-16T20:51:45.606Z,18.19
2022-10-16T20:54:13.645Z,17.90
2022-10-16T20:56:42.567Z,17.89
2022-10-16T20:59:13.479Z,17.83
2022-10-16T21:01:41.881Z,18.12
2022-10-16T21:04:10.440Z,18.40
2022-10-16T21:06:40.613Z,18.73
2022-10-16T21:09:09.286Z,18.93
2022-10-16T21:11:38.102Z,18.90
2022-10-16T21:14:08.912Z,18.77
2022-10-16T21:16:38.371Z,18.64
2022-10-16T21:19:06.572Z,17.78
2022-10-16T21:21:37.936Z,17.76
2022-10-16T21:24:07.266Z,18.16
2022-10-16T21:26:35.372Z,18.25
2022-10-16T21:29:05.901Z,18.53
2022-10-16T21:31:34.628Z,18.71
2022-10-16T21:34:04.097Z,18.82
2022-10-16T21:36:34.023Z,18.73
2022-10-16T21:39:03.390Z,18.46
2022-10-16T21:41:32.387Z,18.28
2022-10-16T21:44:00.974Z,18.61
2022-10-16T21:46:31.758Z,18.65
2022-10-16T21:49:01.516Z,18.72
2022-10-16T21:51:33.860Z,18.75
2022-10-16T21:54:02.630Z,18.59
2022-10-16T21:56:31.081Z,18.61
2022-10-16T21:58:59.540Z,18.55
2022-10-16T22:01:28.853Z,18.50
2022-10-16T22:03:56.997Z,18.46
2022-10-16T22:06:27.625Z,18.35
2022-10-16T22:08:59.743Z,18.34
2022-10-16T22:11:31.329Z,18.40
2022-10-16T22:13:59.519Z,18.39
2022-10-16T22:16:28.027Z,18.40
2022-10-16T22:18:58.118Z,18.45
2022-10-16T22:21:26.647Z,18.36
2022-10-16T22:23:54.899Z,18.30
2022-10-16T22:26:24.216Z,18.30
2022-10-16T22:28:52.251Z,18.29
2022-10-16T22:31:21.692Z,18.25
2022-10-16T22:33:49.660Z,18.28
2022-10-16T22:36:17.671Z,18.09
2022-10-16T22:38:45.621Z,18.23
2022-10-16T22:41:15.604Z,18.26
2022-10-16T22:43:48.149Z,18.13
2022-10-16T22:46:18.102Z,18.23
2022-10-16T22:48:46.826Z,18.19
2022-10-16T22:51:16.917Z,17.99
2022-10-16T22:53:46.508Z,18.06
2022-10-16T22:56:15.866Z,18.07
2022-10-16T22:58:45.602Z,17.98
2022-10-16T23:01:16.165Z,17.79
2022-10-16T23:03:44.198Z,17.96
2022-10-16T23:06:12.630Z,17.98
2022-10-16T23:08:40.829Z,17.89
2022-10-16T23:11:10.326Z,18.08
2022-10-16T23:13:39.008Z,18.09
2022-10-16T23:16:09.076Z,17.98
2022-10-16T23:18:37.036Z,18.12
2022-10-16T23:21:09.940Z,17.63
2022-10-16T23:23:38.951Z,17.33
2022-10-16T23:26:11.123Z,17.45
2022-10-16T23:28:39.866Z,17.68
2022-10-16T23:31:09.902Z,17.48
2022-10-16T23:33:38.742Z,17.55
2022-10-16T23:36:08.600Z,17.72
2022-10-16T23:38:36.701Z,18.14
2022-10-16T23:41:04.868Z,18.35
2022-10-16T23:43:32.937Z,18.35
2022-10-16T23:46:00.948Z,18.04
2022-10-16T23:48:30.876Z,17.95
2022-10-16T23:50:59.184Z,18.04
2022-10-16T23:53:27.940Z,18.16
2022-10-16T23:55:55.918Z,18.25
2022-10-16T23:58:24.145Z,18.25
